createdAt,value
2018-10-07T00:01:31.682Z,18.87
2018-10-07T00:04:01.244Z,19.26
2018-10-07T00:06:30.500Z,19.32
2018-10-07T00:08:59.850Z,19.24
2018-10-07T00:11:28.931Z,19.17
2018-10-07T00:13:58.010Z,19.17
2018-10-07T00:16:27.226Z,19.17
2018-10-07T00:18:56.261Z,19.10
2018-10-07T00:21:25.294Z,19.08
2018-10-07T00:23:54.361Z,19.18
2018-10-07T00:26:23.368Z,19.12
2018-10-07T00:28:52.604Z,19.08
2018-10-07T00:31:21.994Z,19.07
2018-10-07T00:33:51.520Z,18.90
2018-10-07T00:36:20.917Z,18.97
2018-10-07T00:38:50.215Z,18.98
2018-10-07T00:41:19.457Z,19.00
2018-10-07T00:43:48.509Z,19.10
2018-10-07T00:46:17.730Z,19.03
2018-10-07T00:48:46.938Z,18.90
2018-10-07T00:51:15.981Z,18.78
2018-10-07T00:53:45.127Z,18.85
2018-10-07T00:56:14.435Z,18.85
2018-10-07T00:58:44.315Z,18.53
2018-10-07T01:01:13.750Z,18.85
2018-10-07T01:03:42.866Z,18.90
2018-10-07T01:06:12.250Z,18.79
2018-10-07T01:08:41.632Z,18.68
2018-10-07T01:11:10.854Z,18.78
2018-10-07T01:13:39.961Z,18.72
2018-10-07T01:16:09.110Z,18.57
2018-10-07T01:18:38.130Z,18.71
2018-10-07T01:21:07.150Z,18.62
2018-10-07T01:23:36.442Z,18.60
2018-10-07T01:26:05.939Z,18.50
2018-10-07T01:28:35.051Z,18.47
2018-10-07T01:31:04.031Z,18.50
2018-10-07T01:33:33.059Z,18.53
2018-10-07T01:36:02.416Z,18.49
2018-10-07T01:38:31.455Z,18.50
2018-10-07T01:41:00.544Z,18.53
2018-10-07T01:43:30.024Z,18.53
2018-10-07T01:45:59.885Z,18.54
2018-10-07T01:48:28.987Z,18.51
2018-10-07T01:50:58.075Z,18.49
2018-10-07T01:53:29.355Z,18.44
2018-10-07T01:55:58.365Z,18.37
2018-10-07T01:58:27.370Z,18.27
2018-10-07T02:00:56.714Z,18.19
2018-10-07T02:03:25.727Z,18.27
2018-10-07T02:05:55.020Z,18.29
2018-10-07T02:08:24.415Z,18.24
2018-10-07T02:10:53.405Z,18.18
2018-10-07T02:13:22.627Z,18.21
2018-10-07T02:15:51.631Z,18.11
2018-10-07T02:18:21.086Z,18.09
2018-10-07T02:20:50.083Z,18.10
2018-10-07T02:23:19.116Z,18.04
2018-10-07T02:25:48.426Z,17.97
2018-10-07T02:28:17.523Z,17.94
2018-10-07T02:30:46.798Z,17.69
2018-10-07T02:33:15.806Z,17.71
2018-10-07T02:35:45.014Z,17.76
2018-10-07T02:38:14.019Z,17.99
2018-10-07T02:40:43.322Z,17.90
2018-10-07T02:43:12.441Z,17.84
2018-10-07T02:45:41.626Z,17.85
2018-10-07T02:48:10.694Z,17.76
2018-10-07T02:50:40.667Z,17.95
2018-10-07T02:53:09.955Z,17.77
2018-10-07T02:55:39.019Z,17.63
2018-10-07T02:58:08.479Z,17.66
2018-10-07T03:00:37.528Z,18.00
2018-10-07T03:03:06.608Z,18.02
2018-10-07T03:05:35.655Z,17.96
2018-10-07T03:08:04.661Z,17.99
2018-10-07T03:10:33.670Z,17.91
2018-10-07T03:13:02.692Z,17.95
2018-10-07T03:15:32.197Z,17.96
2018-10-07T03:18:01.406Z,17.94
2018-10-07T03:20:30.407Z,17.84
2018-10-07T03:22:59.405Z,17.74
2018-10-07T03:25:28.678Z,17.56
2018-10-07T03:27:57.666Z,17.84
2018-10-07T03:30:26.707Z,17.60
2018-10-07T03:32:55.720Z,17.79
2018-10-07T03:35:24.740Z,17.69
2018-10-07T03:37:54.106Z,17.67
2018-10-07T03:40:23.116Z,17.65
2018-10-07T03:42:52.128Z,17.61
2018-10-07T03:45:21.660Z,17.64
2018-10-07T03:47:50.671Z,17.67
2018-10-07T03:50:19.934Z,17.54
2018-10-07T03:52:49.220Z,17.72
2018-10-07T03:55:18.466Z,17.85
2018-10-07T03:57:47.658Z,17.92
2018-10-07T04:00:16.687Z,17.87
2018-10-07T04:02:46.107Z,17.69
2018-10-07T04:05:15.343Z,17.79
2018-10-07T04:07:44.348Z,17.84
2018-10-07T04:10:13.358Z,17.88
2018-10-07T04:12:42.398Z,17.59
2018-10-07T04:15:11.589Z,17.76
2018-10-07T04:17:40.615Z,17.58
2018-10-07T04:20:09.713Z,17.62
2018-10-07T04:22:38.843Z,17.74
2018-10-07T04:25:07.896Z,17.67
2018-10-07T04:27:36.914Z,17.70
2018-10-07T04:30:06.156Z,17.72
2018-10-07T04:32:35.203Z,17.66
2018-10-07T04:35:04.230Z,17.73
2018-10-07T04:37:33.505Z,17.55
2018-10-07T04:40:02.577Z,17.80
2018-10-07T04:42:31.764Z,17.87
2018-10-07T04:45:00.781Z,17.74
2018-10-07T04:47:29.781Z,17.84
2018-10-07T04:49:58.831Z,17.84
2018-10-07T04:52:27.850Z,17.87
2018-10-07T04:54:56.903Z,17.67
2018-10-07T04:57:25.898Z,17.59
2018-10-07T04:59:54.894Z,17.52
2018-10-07T05:02:24.198Z,17.65
2018-10-07T05:04:53.220Z,17.48
2018-10-07T05:07:22.319Z,17.54
2018-10-07T05:11:05.875Z,17.66
2018-10-07T05:13:44.278Z,17.19
2018-10-07T05:16:18.747Z,17.27
2018-10-07T05:18:47.943Z,17.30
2018-10-07T05:21:17.020Z,17.16
2018-10-07T05:23:46.013Z,17.15
2018-10-07T05:26:15.077Z,17.28
2018-10-07T05:28:44.085Z,17.33
2018-10-07T05:31:13.370Z,17.24
2018-10-07T05:33:42.407Z,17.40
2018-10-07T05:36:11.455Z,17.22
2018-10-07T05:38:40.747Z,17.34
2018-10-07T05:41:10.445Z,17.15
2018-10-07T05:43:39.463Z,17.40
2018-10-07T05:46:08.514Z,17.37
2018-10-07T05:48:37.513Z,17.15
2018-10-07T05:51:06.787Z,17.13
2018-10-07T05:53:36.054Z,17.09
2018-10-07T05:56:05.181Z,16.93
2018-10-07T05:58:34.643Z,16.86
2018-10-07T06:01:09.696Z,16.67
2018-10-07T06:03:45.104Z,16.66
2018-10-07T06:06:14.140Z,16.73
2018-10-07T06:08:43.480Z,16.75
2018-10-07T06:11:12.494Z,16.84
2018-10-07T06:13:41.554Z,16.66
2018-10-07T06:16:10.572Z,16.74
2018-10-07T06:18:39.566Z,16.50
2018-10-07T06:21:08.608Z,16.31
2018-10-07T06:23:37.650Z,16.26
2018-10-07T06:26:06.669Z,16.23
2018-10-07T06:28:36.039Z,16.34
2018-10-07T06:31:05.046Z,16.51
2018-10-07T06:33:34.062Z,16.34
2018-10-07T06:36:03.059Z,16.47
2018-10-07T06:38:32.103Z,16.09
2018-10-07T06:41:01.165Z,15.89
2018-10-07T06:43:30.160Z,16.09
2018-10-07T06:45:59.199Z,16.39
2018-10-07T06:48:28.168Z,16.56
2018-10-07T06:50:57.395Z,16.18
2018-10-07T06:53:26.485Z,16.49
2018-10-07T06:58:24.130Z,16.30
2018-10-07T07:00:53.398Z,16.33
2018-10-07T07:03:22.563Z,16.42
2018-10-07T07:05:51.855Z,16.40
2018-10-07T07:08:21.143Z,16.58
2018-10-07T07:10:50.167Z,16.61
2018-10-07T07:13:19.299Z,15.85
2018-10-07T07:15:48.499Z,15.52
2018-10-07T07:18:17.784Z,15.63
2018-10-07T07:20:47.269Z,16.08
2018-10-07T07:23:16.633Z,16.12
2018-10-07T07:25:46.013Z,15.31
2018-10-07T07:28:18.726Z,15.33
2018-10-07T07:30:49.039Z,15.37
2018-10-07T07:33:18.118Z,15.31
2018-10-07T07:35:47.490Z,15.10
2018-10-07T07:38:16.612Z,14.80
2018-10-07T07:40:45.922Z,14.84
2018-10-07T07:43:15.179Z,15.10
2018-10-07T07:45:44.584Z,14.93
2018-10-07T07:48:13.600Z,14.81
2018-10-07T07:50:42.683Z,14.98
2018-10-07T07:53:12.375Z,14.68
2018-10-07T07:55:42.326Z,14.43
2018-10-07T07:58:11.887Z,14.80
2018-10-07T08:00:43.686Z,14.96
2018-10-07T08:03:12.694Z,14.49
2018-10-07T08:05:41.734Z,14.47
2018-10-07T08:08:10.774Z,14.49
2018-10-07T08:10:40.135Z,14.46
2018-10-07T08:13:09.203Z,14.92
2018-10-07T08:15:38.397Z,14.43
2018-10-07T08:18:07.437Z,14.64
2018-10-07T08:20:36.636Z,14.46
2018-10-07T08:23:07.269Z,14.60
2018-10-07T08:25:36.283Z,14.39
2018-10-07T08:28:05.323Z,14.33
2018-10-07T08:30:34.310Z,14.32
2018-10-07T08:33:03.365Z,14.32
2018-10-07T08:35:32.398Z,14.24
2018-10-07T08:38:01.565Z,14.33
2018-10-07T08:40:30.603Z,13.83
2018-10-07T08:42:59.620Z,13.84
2018-10-07T08:45:28.701Z,13.90
2018-10-07T08:47:57.686Z,14.43
2018-10-07T08:50:26.697Z,14.28
2018-10-07T08:52:56.230Z,14.23
2018-10-07T08:55:25.262Z,14.19
2018-10-07T08:57:54.263Z,14.15
2018-10-07T09:00:23.272Z,14.48
2018-10-07T09:02:52.294Z,14.73
2018-10-07T09:05:21.565Z,14.12
2018-10-07T09:07:50.629Z,13.73
2018-10-07T09:10:19.845Z,13.92
2018-10-07T09:12:48.911Z,14.19
2018-10-07T09:15:18.003Z,14.06
2018-10-07T09:17:47.023Z,14.15
2018-10-07T09:20:16.046Z,14.00
2018-10-07T09:22:45.059Z,13.56
2018-10-07T09:25:14.482Z,13.75
2018-10-07T09:27:43.533Z,13.65
2018-10-07T09:30:12.623Z,13.89
2018-10-07T09:32:41.706Z,13.58
2018-10-07T09:35:10.747Z,13.58
2018-10-07T09:37:39.848Z,13.61
2018-10-07T09:40:09.084Z,13.38
2018-10-07T09:42:38.235Z,13.33
2018-10-07T09:45:07.893Z,13.49
2018-10-07T09:47:37.078Z,13.52
2018-10-07T09:50:06.644Z,13.35
2018-10-07T09:52:35.932Z,13.35
2018-10-07T09:55:04.995Z,13.15
2018-10-07T09:57:33.975Z,13.77
2018-10-07T10:00:03.619Z,13.79
2018-10-07T10:02:33.026Z,13.61
2018-10-07T10:05:02.335Z,13.37
2018-10-07T10:07:31.382Z,13.44
2018-10-07T10:10:00.522Z,13.33
2018-10-07T10:12:30.381Z,13.49
2018-10-07T10:14:59.501Z,13.79
2018-10-07T10:17:29.056Z,13.72
2018-10-07T10:20:08.985Z,13.55
2018-10-07T10:23:23.020Z,13.83
2018-10-07T10:28:09.110Z,14.39
2018-10-07T10:31:59.019Z,13.38
2018-10-07T10:34:44.247Z,13.43
2018-10-07T10:37:19.870Z,13.32
2018-10-07T10:39:55.762Z,13.41
2018-10-07T10:42:51.201Z,13.78
2018-10-07T10:45:35.421Z,14.02
2018-10-07T10:48:20.971Z,13.49
2018-10-07T10:50:58.496Z,13.29
2018-10-07T10:53:41.435Z,14.01
2018-10-07T10:56:19.427Z,14.10
2018-10-07T10:59:06.780Z,14.00
2018-10-07T11:02:07.545Z,14.24
2018-10-07T11:04:47.931Z,14.19
2018-10-07T11:07:24.969Z,14.53
2018-10-07T11:10:10.046Z,14.36
2018-10-07T11:12:48.722Z,14.05
2018-10-07T11:15:38.881Z,14.18
2018-10-07T11:18:17.271Z,14.39
2018-10-07T11:21:03.964Z,14.46
2018-10-07T11:23:46.234Z,14.28
2018-10-07T11:26:29.238Z,14.50
2018-10-07T11:29:26.237Z,13.78
2018-10-07T11:32:11.795Z,13.74
2018-10-07T11:34:56.307Z,13.72
2018-10-07T11:37:42.618Z,14.25
2018-10-07T11:40:30.134Z,14.25
2018-10-07T11:43:22.731Z,13.99
2018-10-07T11:46:03.545Z,13.57
2018-10-07T11:49:20.190Z,14.15
2018-10-07T11:51:59.781Z,13.81
2018-10-07T11:55:02.869Z,13.82
2018-10-07T11:57:32.406Z,13.72
2018-10-07T12:02:39.583Z,14.71
2018-10-07T12:05:08.735Z,14.39
2018-10-07T12:07:38.759Z,14.29
2018-10-07T12:10:08.337Z,13.81
2018-10-07T12:12:37.421Z,13.83
2018-10-07T12:15:06.444Z,13.75
2018-10-07T12:17:35.442Z,13.87
2018-10-07T12:20:05.807Z,14.14
2018-10-07T12:22:34.925Z,14.07
2018-10-07T12:25:04.199Z,14.86
2018-10-07T12:27:34.031Z,14.34
2018-10-07T12:30:03.378Z,14.01
2018-10-07T12:32:32.427Z,14.27
2018-10-07T12:35:01.966Z,14.34
2018-10-07T12:37:31.712Z,14.46
2018-10-07T12:40:00.816Z,14.67
2018-10-07T12:42:30.196Z,14.23
2018-10-07T12:44:59.238Z,14.18
2018-10-07T12:47:28.268Z,14.52
2018-10-07T12:49:57.705Z,14.44
2018-10-07T12:52:27.152Z,14.63
2018-10-07T12:54:56.478Z,14.90
2018-10-07T12:57:25.666Z,14.46
2018-10-07T12:59:54.815Z,14.55
2018-10-07T13:02:24.071Z,14.82
2018-10-07T13:04:53.641Z,14.94
2018-10-07T13:07:23.391Z,14.46
2018-10-07T13:09:52.941Z,14.42
2018-10-07T13:12:22.640Z,14.37
2018-10-07T13:14:52.407Z,14.32
2018-10-07T13:17:22.497Z,14.46
2018-10-07T13:19:53.033Z,14.36
2018-10-07T13:22:22.565Z,14.28
2018-10-07T13:24:52.079Z,14.09
2018-10-07T13:27:21.344Z,14.55
2018-10-07T13:29:50.715Z,14.44
2018-10-07T13:32:19.994Z,14.28
2018-10-07T13:34:49.023Z,14.26
2018-10-07T13:37:18.341Z,14.61
2018-10-07T13:39:47.417Z,14.38
2018-10-07T13:42:16.529Z,14.39
2018-10-07T13:44:45.972Z,14.26
2018-10-07T13:47:15.114Z,14.74
2018-10-07T13:49:44.754Z,14.68
2018-10-07T13:52:14.394Z,14.54
2018-10-07T13:54:44.369Z,14.63
2018-10-07T13:57:14.051Z,15.11
2018-10-07T13:59:43.678Z,15.60
2018-10-07T14:02:12.727Z,15.76
2018-10-07T14:04:42.120Z,15.83
2018-10-07T14:07:11.395Z,14.86
2018-10-07T14:09:40.501Z,14.65
2018-10-07T14:12:09.556Z,14.54
2018-10-07T14:14:38.691Z,14.73
2018-10-07T14:17:07.757Z,15.22
2018-10-07T14:19:36.772Z,14.68
2018-10-07T14:22:05.860Z,14.52
2018-10-07T14:24:35.268Z,14.66
2018-10-07T14:27:04.972Z,14.72
2018-10-07T14:29:34.472Z,14.63
2018-10-07T14:32:05.126Z,14.72
2018-10-07T14:34:34.849Z,14.41
2018-10-07T14:37:04.509Z,14.66
2018-10-07T14:39:33.967Z,14.33
2018-10-07T14:42:03.059Z,14.73
2018-10-07T14:44:32.061Z,14.73
2018-10-07T14:47:01.660Z,14.68
2018-10-07T14:49:30.911Z,14.92
2018-10-07T14:52:00.009Z,14.68
2018-10-07T14:54:29.089Z,14.72
2018-10-07T14:56:58.386Z,14.99
2018-10-07T14:59:27.450Z,14.91
2018-10-07T15:01:56.487Z,14.81
2018-10-07T15:04:25.775Z,14.84
2018-10-07T15:06:54.846Z,15.19
2018-10-07T15:09:24.289Z,14.72
2018-10-07T15:11:53.250Z,14.94
2018-10-07T15:14:22.668Z,15.35
2018-10-07T15:16:51.722Z,15.31
2018-10-07T15:19:20.727Z,15.06
2018-10-07T15:21:49.895Z,14.85
2018-10-07T15:24:19.215Z,15.02
2018-10-07T15:26:48.282Z,14.99
2018-10-07T15:29:18.051Z,14.74
2018-10-07T15:31:47.618Z,15.26
2018-10-07T15:34:16.714Z,15.16
2018-10-07T15:36:47.226Z,15.32
2018-10-07T15:39:16.802Z,14.82
2018-10-07T15:41:47.191Z,15.18
2018-10-07T15:44:17.795Z,15.17
2018-10-07T15:46:47.710Z,14.92
2018-10-07T15:49:17.557Z,14.71
2018-10-07T15:51:46.548Z,14.92
2018-10-07T15:54:15.695Z,14.82
2018-10-07T15:56:46.969Z,14.70
2018-10-07T15:59:16.493Z,14.91
2018-10-07T16:01:46.526Z,14.92
2018-10-07T16:04:16.692Z,14.47
2018-10-07T16:06:46.280Z,14.86
2018-10-07T16:09:17.492Z,15.13
2018-10-07T16:11:48.051Z,15.07
2018-10-07T16:14:17.860Z,15.22
2018-10-07T16:16:48.175Z,15.03
2018-10-07T16:19:17.339Z,15.33
2018-10-07T16:21:46.770Z,15.08
2018-10-07T16:24:15.832Z,15.15
2018-10-07T16:26:44.869Z,15.28
2018-10-07T16:29:14.051Z,15.12
2018-10-07T16:31:43.043Z,15.46
2018-10-07T16:34:12.230Z,15.00
2018-10-07T16:36:41.489Z,14.75
2018-10-07T16:39:10.599Z,14.57
2018-10-07T16:41:39.743Z,14.83
2018-10-07T16:44:08.899Z,14.72
2018-10-07T16:46:37.895Z,14.64
2018-10-07T16:49:07.365Z,14.42
2018-10-07T16:51:36.435Z,14.84
2018-10-07T16:54:06.696Z,14.66
2018-10-07T16:56:36.922Z,14.42
2018-10-07T16:59:07.115Z,14.43
2018-10-07T17:01:37.323Z,14.37
2018-10-07T17:04:07.160Z,14.27
2018-10-07T17:06:36.903Z,14.12
2018-10-07T17:09:09.540Z,13.96
2018-10-07T17:11:39.943Z,13.97
2018-10-07T17:14:10.293Z,13.55
2018-10-07T17:16:39.427Z,13.84
2018-10-07T17:19:08.474Z,13.66
2018-10-07T17:21:37.523Z,13.49
2018-10-07T17:24:07.819Z,13.56
2018-10-07T17:26:37.988Z,13.62
2018-10-07T17:29:08.568Z,13.59
2018-10-07T17:31:37.601Z,13.78
2018-10-07T17:34:06.651Z,13.80
2018-10-07T17:36:35.720Z,13.60
2018-10-07T17:39:07.407Z,13.65
2018-10-07T17:41:36.430Z,13.38
2018-10-07T17:44:05.627Z,13.61
2018-10-07T17:46:34.630Z,13.54
2018-10-07T17:49:04.050Z,13.59
2018-10-07T17:51:32.932Z,13.18
2018-10-07T17:54:01.939Z,13.33
2018-10-07T17:56:30.951Z,13.31
2018-10-07T17:58:59.953Z,13.62
2018-10-07T18:01:28.978Z,13.68
2018-10-07T18:03:57.995Z,13.35
2018-10-07T18:06:27.010Z,13.99
2018-10-07T18:08:56.063Z,13.88
2018-10-07T18:11:25.267Z,13.56
2018-10-07T18:13:54.369Z,13.93
2018-10-07T18:16:23.446Z,13.99
2018-10-07T18:18:53.802Z,13.83
2018-10-07T18:21:23.194Z,13.83
2018-10-07T18:23:53.903Z,13.34
2018-10-07T18:26:25.032Z,13.64
2018-10-07T18:28:54.113Z,13.64
2018-10-07T18:31:23.187Z,13.96
2018-10-07T18:33:52.648Z,14.10
2018-10-07T18:36:22.753Z,13.96
2018-10-07T18:38:53.590Z,13.82
2018-10-07T18:41:24.704Z,14.12
2018-10-07T18:43:54.832Z,14.20
2018-10-07T18:46:24.841Z,13.88
2018-10-07T18:48:55.205Z,13.82
2018-10-07T18:51:25.395Z,13.49
2018-10-07T18:53:55.035Z,13.76
2018-10-07T18:56:24.794Z,13.78
2018-10-07T18:58:55.001Z,13.97
2018-10-07T19:01:25.008Z,13.86
2018-10-07T19:03:55.300Z,13.93
2018-10-07T19:06:25.183Z,13.78
2018-10-07T19:08:55.078Z,13.54
2018-10-07T19:11:24.775Z,13.38
2018-10-07T19:14:00.413Z,13.33
2018-10-07T19:16:30.295Z,13.52
2018-10-07T19:19:00.522Z,13.46
2018-10-07T19:21:29.695Z,13.34
2018-10-07T19:23:58.983Z,13.47
2018-10-07T19:26:29.344Z,13.41
2018-10-07T19:29:00.059Z,13.71
2018-10-07T19:31:29.187Z,13.72
2018-10-07T19:33:59.085Z,13.79
2018-10-07T19:36:28.627Z,13.84
2018-10-07T19:38:58.626Z,13.79
2018-10-07T19:41:29.642Z,13.77
2018-10-07T19:43:58.902Z,13.67
2018-10-07T19:46:28.809Z,13.74
2018-10-07T19:48:59.293Z,13.62
2018-10-07T19:51:29.039Z,13.29
2018-10-07T19:53:59.291Z,13.54
2018-10-07T19:56:29.635Z,13.66
2018-10-07T19:58:59.616Z,13.68
2018-10-07T20:01:28.680Z,13.56
2018-10-07T20:03:58.955Z,13.63
2018-10-07T20:06:28.026Z,13.56
2018-10-07T20:08:57.216Z,13.58
2018-10-07T20:11:26.296Z,13.58
2018-10-07T20:13:55.323Z,13.19
2018-10-07T20:16:24.395Z,13.25
2018-10-07T20:18:53.455Z,13.22
2018-10-07T20:21:22.477Z,13.18
2018-10-07T20:23:51.555Z,12.64
2018-10-07T20:26:20.756Z,13.02
2018-10-07T20:28:49.912Z,13.21
2018-10-07T20:31:19.081Z,13.15
2018-10-07T20:33:48.160Z,13.22
2018-10-07T20:36:17.176Z,13.27
2018-10-07T20:38:46.263Z,13.28
2018-10-07T20:41:15.450Z,13.20
2018-10-07T20:43:44.643Z,13.17
2018-10-07T20:46:13.726Z,13.15
2018-10-07T20:48:42.745Z,13.08
2018-10-07T20:51:12.120Z,12.91
2018-10-07T20:53:41.219Z,12.82
2018-10-07T20:56:10.612Z,13.03
2018-10-07T20:58:39.850Z,12.63
2018-10-07T21:01:09.053Z,12.90
2018-10-07T21:03:38.115Z,12.83
2018-10-07T21:06:07.390Z,13.06
2018-10-07T21:08:36.411Z,12.98
2018-10-07T21:11:06.773Z,12.93
2018-10-07T21:13:35.795Z,12.95
2018-10-07T21:16:04.872Z,12.79
2018-10-07T21:18:34.046Z,12.57
2018-10-07T21:21:03.202Z,12.64
2018-10-07T21:23:32.359Z,12.85
2018-10-07T21:26:02.198Z,12.68
2018-10-07T21:28:31.410Z,12.58
2018-10-07T21:31:00.488Z,12.84
2018-10-07T21:33:29.737Z,12.49
2018-10-07T21:35:59.131Z,12.66
2018-10-07T21:38:28.171Z,11.78
2018-10-07T21:40:57.223Z,12.25
2018-10-07T21:43:27.095Z,12.48
2018-10-07T21:45:56.440Z,11.67
2018-10-07T21:48:25.845Z,11.83
2018-10-07T21:50:55.246Z,11.93
2018-10-07T21:53:24.615Z,11.11
2018-10-07T21:55:55.643Z,10.48
2018-10-07T21:58:25.079Z,11.07
2018-10-07T22:00:55.318Z,10.90
2018-10-07T22:03:25.244Z,11.80
2018-10-07T22:05:54.287Z,12.28
2018-10-07T22:08:23.315Z,11.81
2018-10-07T22:10:52.325Z,11.69
2018-10-07T22:13:21.358Z,12.28
2018-10-07T22:15:50.376Z,12.37
2018-10-07T22:18:19.541Z,12.42
2018-10-07T22:20:48.562Z,12.26
2018-10-07T22:23:17.618Z,12.25
2018-10-07T22:25:46.668Z,12.13
2018-10-07T22:28:16.107Z,12.14
2018-10-07T22:30:45.693Z,11.76
2018-10-07T22:33:14.683Z,12.05
2018-10-07T22:35:43.741Z,12.07
2018-10-07T22:38:12.796Z,12.06
2018-10-07T22:40:41.814Z,11.50
2018-10-07T22:43:10.838Z,11.61
2018-10-07T22:45:39.920Z,11.84
2018-10-07T22:48:08.961Z,11.87
2018-10-07T22:50:38.695Z,11.89
2018-10-07T22:53:07.972Z,12.01
2018-10-07T22:55:37.051Z,11.95
2018-10-07T22:58:06.659Z,11.30
2018-10-07T23:00:35.838Z,11.31
2018-10-07T23:03:04.799Z,11.77
2018-10-07T23:05:34.347Z,11.77
2018-10-07T23:08:03.669Z,11.77
2018-10-07T23:10:32.717Z,11.79
2018-10-07T23:13:01.748Z,11.98
2018-10-07T23:15:30.774Z,12.04
2018-10-07T23:17:59.778Z,11.90
2018-10-07T23:20:29.220Z,11.84
2018-10-07T23:22:58.927Z,11.64
2018-10-07T23:25:27.950Z,11.55
2018-10-07T23:27:56.971Z,11.52
2018-10-07T23:30:26.030Z,11.78
2018-10-07T23:32:55.266Z,11.83
2018-10-07T23:35:24.303Z,11.82
2018-10-07T23:37:53.940Z,11.85
2018-10-07T23:40:22.987Z,12.04
2018-10-07T23:42:52.039Z,11.35
2018-10-07T23:45:21.072Z,11.10
2018-10-07T23:47:50.275Z,10.97
2018-10-07T23:50:19.279Z,11.44
2018-10-07T23:52:48.331Z,11.54
2018-10-07T23:55:17.343Z,11.67
2018-10-07T23:57:46.367Z,11.73
